Time;durP1;ratioP1;P1;durP2;ratioP2;P2;SDS_P1;SDS_P2;PMS_P1;PMS_P2;Temp;Humidity;BMP_temperature;BMP_pressure;BME280_temperature;BME280_humidity;BME280_pressure;Samples;Min_cycle;Max_cycle;Signal;HPM_P1;HPM_P2
2024/04/18 00:01:18;;;;;;;7.28;3.90;;;1.50;99.90;;;;;;5451816;26;20009;-74
2024/04/18 00:03:45;;;;;;;3.83;3.53;;;1.50;99.90;;;;;;5465054;26;20006;-74
2024/04/18 00:06:12;;;;;;;3.83;3.30;;;1.40;99.90;;;;;;5465828;26;19995;-74
2024/04/18 00:08:40;;;;;;;6.13;2.85;;;1.40;99.90;;;;;;5452908;26;20052;-74
2024/04/18 00:11:25;;;;;;;2.55;2.20;;;1.40;99.90;;;;;;5481250;26;20527;-73
2024/04/18 00:13:52;;;;;;;4.47;3.30;;;1.30;99.90;;;;;;5463688;26;19998;-74
2024/04/18 00:16:35;;;;;;;4.40;3.85;;;1.30;99.90;;;;;;5467436;26;20348;-74
2024/04/18 00:19:17;;;;;;;7.38;3.38;;;1.20;99.90;;;;;;5483757;26;20013;-75
2024/04/18 00:22:02;;;;;;;4.82;4.50;;;1.30;99.90;;;;;;5467674;26;20372;-74
2024/04/18 00:24:30;;;;;;;5.50;5.20;;;1.30;99.90;;;;;;5451738;26;20448;-75
2024/04/18 00:26:57;;;;;;;5.15;4.65;;;1.30;99.90;;;;;;5443869;26;20034;-74
2024/04/18 00:29:37;;;;;;;3.55;3.25;;;1.30;99.90;;;;;;5460600;26;20021;-74
2024/04/18 00:32:10;;;;;;;4.95;4.65;;;1.40;99.90;;;;;;5471650;26;20017;-74
2024/04/18 00:34:58;;;;;;;5.05;3.95;;;1.30;99.90;;;;;;5479466;26;20479;-74
2024/04/18 00:37:33;;;;;;;4.63;4.38;;;1.20;99.90;;;;;;5487261;26;20002;-74
2024/04/18 00:40:00;;;;;;;5.03;2.60;;;1.20;99.90;;;;;;5476331;26;19999;-74
2024/04/18 00:42:37;;;;;;;4.82;4.43;;;1.20;99.90;;;;;;5466528;26;20052;-74
2024/04/18 00:45:06;;;;;;;5.78;5.28;;;1.20;99.90;;;;;;5475303;26;20071;-74
2024/04/18 00:47:46;;;;;;;7.07;2.58;;;1.20;99.90;;;;;;5453689;26;20373;-74
2024/04/18 00:50:16;;;;;;;8.93;5.30;;;1.10;99.90;;;;;;5451941;26;20323;-74
2024/04/18 00:52:44;;;;;;;3.33;3.13;;;1.10;99.90;;;;;;5453505;26;19999;-74
2024/04/18 00:55:25;;;;;;;5.25;4.95;;;1.00;99.90;;;;;;5453339;26;20021;-75
2024/04/18 00:58:09;;;;;;;4.60;4.30;;;1.00;99.90;;;;;;5451295;26;20030;-74
2024/04/18 01:00:45;;;;;;;2.75;2.65;;;0.90;99.90;;;;;;5451861;26;20080;-74
2024/04/18 01:03:31;;;;;;;4.75;2.35;;;1.00;99.90;;;;;;5452780;26;20080;-74
2024/04/18 01:06:08;;;;;;;4.90;3.25;;;0.80;99.90;;;;;;5451459;26;20521;-75
2024/04/18 01:08:54;;;;;;;;;;;0.90;99.90;;;;;;5453912;26;20455;-74
2024/04/18 01:11:31;;;;;;;6.55;5.00;;;0.80;99.90;;;;;;5452976;26;20439;-74
2024/04/18 01:14:09;;;;;;;5.43;2.80;;;0.80;99.90;;;;;;5451282;26;19999;-74
2024/04/18 01:16:55;;;;;;;5.30;2.70;;;0.80;99.90;;;;;;5451549;26;20013;-74
2024/04/18 01:19:22;;;;;;;3.85;3.22;;;0.80;99.90;;;;;;5451236;26;20007;-74
2024/04/18 01:21:49;;;;;;;4.25;3.85;;;0.80;99.90;;;;;;5452919;26;19998;-74
2024/04/18 01:24:18;;;;;;;3.15;2.95;;;0.80;99.90;;;;;;5452824;26;19995;-74
2024/04/18 01:26:45;;;;;;;2.80;2.60;;;0.80;99.90;;;;;;5451527;26;20043;-74
2024/04/18 01:29:12;;;;;;;5.53;4.20;;;0.80;99.90;;;;;;5450677;26;19995;-74
2024/04/18 01:31:58;;;;;;;4.10;3.80;;;0.70;99.90;;;;;;5451157;26;20021;-74
2024/04/18 01:34:25;;;;;;;6.13;4.50;;;0.70;99.90;;;;;;5420769;26;20010;-73
2024/04/18 01:37:11;;;;;;;3.90;3.55;;;0.70;99.90;;;;;;5451240;26;20186;-74
2024/04/18 01:39:39;;;;;;;3.53;2.35;;;0.80;99.90;;;;;;5450767;26;19998;-74
2024/04/18 01:42:07;;;;;;;7.30;4.38;;;0.80;99.90;;;;;;5420969;26;20018;-74
2024/04/18 01:44:41;;;;;;;6.80;4.75;;;0.80;99.90;;;;;;5452495;26;20014;-74
2024/04/18 01:47:26;;;;;;;4.45;4.25;;;0.80;99.90;;;;;;5449399;26;20026;-74
2024/04/18 01:50:06;;;;;;;4.43;3.80;;;0.80;99.90;;;;;;5450579;26;20017;-74
2024/04/18 01:52:33;;;;;;;4.85;3.97;;;0.80;99.90;;;;;;5452478;26;20011;-74
2024/04/18 01:55:05;;;;;;;5.95;3.53;;;0.70;99.90;;;;;;5452757;26;20014;-74
2024/04/18 01:57:36;;;;;;;5.97;3.38;;;0.70;99.90;;;;;;5421463;26;20154;-74
2024/04/18 02:00:22;;;;;;;3.55;3.00;;;0.80;99.90;;;;;;5452104;26;20014;-74
2024/04/18 02:02:49;;;;;;;3.47;2.95;;;0.80;99.90;;;;;;5452299;26;20441;-74
2024/04/18 02:05:35;;;;;;;5.07;4.53;;;0.80;99.90;;;;;;5450671;26;20402;-74
2024/04/18 02:08:15;;;;;;;6.57;4.55;;;0.80;99.90;;;;;;5452483;26;20076;-74
2024/04/18 02:10:48;;;;;;;3.15;2.95;;;0.80;99.90;;;;;;5450116;26;20324;-74
2024/04/18 02:13:36;;;;;;;4.10;2.47;;;0.80;99.90;;;;;;5413864;26;20006;-74
2024/04/18 02:16:04;;;;;;;4.40;2.92;;;0.80;99.90;;;;;;5450342;26;20003;-74
2024/04/18 02:19:06;;;;;;;3.85;3.50;;;0.70;99.90;;;;;;5450293;26;20007;-74
2024/04/18 02:21:53;;;;;;;3.85;3.38;;;0.70;99.90;;;;;;5451670;26;20395;-74
2024/04/18 02:24:38;;;;;;;3.85;3.55;;;0.60;99.90;;;;;;5422893;26;20013;-74
2024/04/18 02:27:05;;;;;;;5.13;4.35;;;0.70;99.90;;;;;;5451735;26;20077;-74
2024/04/18 02:29:32;;;;;;;4.10;3.72;;;0.60;99.90;;;;;;5451417;26;19999;-74
2024/04/18 02:31:59;;;;;;;8.80;4.85;;;0.60;99.90;;;;;;5452153;26;19995;-74
2024/04/18 02:34:30;;;;;;;4.18;3.80;;;0.60;99.90;;;;;;5449928;26;20320;-74
2024/04/18 02:36:57;;;;;;;3.70;3.50;;;0.50;99.90;;;;;;5420640;26;20006;-74
2024/04/18 02:39:24;;;;;;;3.05;2.85;;;0.50;99.90;;;;;;5449791;26;19999;-74
2024/04/18 02:41:51;;;;;;;5.18;3.90;;;0.50;99.90;;;;;;5449799;26;20005;-74
2024/04/18 02:44:47;;;;;;;5.28;4.38;;;0.50;99.90;;;;;;5451550;26;20323;-73
2024/04/18 02:47:14;;;;;;;4.53;4.22;;;0.40;99.90;;;;;;5450022;26;20006;-74
2024/04/18 02:50:01;;;;;;;4.63;4.22;;;0.40;99.90;;;;;;5449692;26;20448;-73
2024/04/18 02:52:28;;;;;;;4.97;4.70;;;0.40;99.90;;;;;;5451079;26;19999;-73
2024/04/18 02:54:55;;;;;;;4.97;4.43;;;0.40;99.90;;;;;;5449442;26;19999;-74
2024/04/18 02:57:23;;;;;;;4.55;4.22;;;0.40;99.90;;;;;;5450037;26;20005;-73
2024/04/18 02:59:50;;;;;;;5.50;4.15;;;0.40;99.90;;;;;;5423132;26;20082;-73
2024/04/18 03:02:21;;;;;;;4.40;4.15;;;0.40;99.90;;;;;;5482632;26;20009;-73
2024/04/18 03:04:48;;;;;;;4.20;3.65;;;0.40;99.90;;;;;;5469158;26;20407;-74
2024/04/18 03:07:16;;;;;;;3.63;3.33;;;0.30;99.90;;;;;;5491004;26;20017;-73
2024/04/18 03:09:46;;;;;;;5.55;5.15;;;0.40;99.90;;;;;;5490528;26;20458;-74
2024/04/18 03:12:26;;;;;;;5.70;4.13;;;0.30;99.90;;;;;;5517167;26;20328;-74
2024/04/18 03:15:11;;;;;;;3.63;3.17;;;0.40;99.90;;;;;;5489625;26;20017;-73
2024/04/18 03:18:01;;;;;;;4.65;4.25;;;0.30;99.90;;;;;;5491095;26;20006;-73
2024/04/18 03:20:34;;;;;;;4.25;3.90;;;0.30;99.90;;;;;;5520073;26;20324;-73
2024/04/18 03:23:06;;;;;;;4.60;3.38;;;0.30;99.90;;;;;;5491148;26;20439;-73
2024/04/18 03:25:53;;;;;;;4.07;3.75;;;0.20;99.90;;;;;;5489249;26;19998;-73
2024/04/18 03:28:20;;;;;;;4.03;3.08;;;0.30;99.90;;;;;;5458793;26;19998;-73
2024/04/18 03:30:47;;;;;;;3.15;2.92;;;0.20;99.90;;;;;;5490541;26;19999;-73
2024/04/18 03:33:14;;;;;;;4.35;3.80;;;0.20;99.90;;;;;;5489109;26;20021;-74
2024/04/18 03:35:42;;;;;;;4.45;4.15;;;0.20;99.90;;;;;;5490503;26;20459;-73
2024/04/18 03:38:15;;;;;;;6.95;6.45;;;0.20;99.90;;;;;;5490820;26;20017;-74
2024/04/18 03:40:42;;;;;;;4.47;3.35;;;0.20;99.90;;;;;;5519199;26;20016;-74
2024/04/18 03:43:09;;;;;;;5.30;4.97;;;0.10;99.90;;;;;;5490611;26;19998;-74
2024/04/18 03:45:36;;;;;;;3.33;3.05;;;0.10;99.90;;;;;;5519061;26;19998;-74
2024/04/18 03:48:21;;;;;;;3.25;2.97;;;0.10;99.90;;;;;;5489247;26;20451;-73
2024/04/18 03:50:48;;;;;;;5.82;4.95;;;0.10;99.90;;;;;;5490294;26;20006;-74
2024/04/18 03:53:19;;;;;;;4.70;4.03;;;0.00;99.90;;;;;;5518722;26;20017;-74
2024/04/18 03:55:46;;;;;;;5.97;5.05;;;0.00;99.90;;;;;;5490503;26;19998;-73
2024/04/18 03:58:13;;;;;;;4.90;4.47;;;0.00;99.90;;;;;;5519658;26;20002;-74
2024/04/18 04:00:50;;;;;;;3.75;3.17;;;0.00;99.90;;;;;;5488701;26;20034;-74
2024/04/18 04:03:17;;;;;;;5.75;3.53;;;0.00;99.90;;;;;;5488952;26;20066;-74
2024/04/18 04:05:44;;;;;;;4.05;3.75;;;0.00;99.90;;;;;;5489928;26;20002;-73
2024/04/18 04:08:11;;;;;;;3.95;2.85;;;-0.10;99.90;;;;;;5488565;26;20009;-74
2024/04/18 04:10:39;;;;;;;4.00;2.92;;;-0.10;99.90;;;;;;5487056;26;19998;-74
2024/04/18 04:13:06;;;;;;;4.53;4.22;;;-0.10;99.90;;;;;;5519084;26;20010;-74
2024/04/18 04:15:46;;;;;;;4.03;3.75;;;-0.10;99.90;;;;;;5490329;26;20050;-74
2024/04/18 04:18:33;;;;;;;5.95;5.65;;;-0.20;99.90;;;;;;5514692;26;20466;-73
2024/04/18 04:21:19;;;;;;;4.78;4.47;;;-0.10;99.90;;;;;;5488687;26;20366;-74
2024/04/18 04:23:46;;;;;;;9.82;4.57;;;-0.10;99.90;;;;;;5487954;26;20013;-74
2024/04/18 04:26:14;;;;;;;4.07;3.85;;;-0.10;99.90;;;;;;5488265;26;19998;-74
2024/04/18 04:28:41;;;;;;;5.25;4.85;;;0.00;99.90;;;;;;5458193;26;20373;-74
2024/04/18 04:31:08;;;;;;;4.68;4.30;;;0.10;99.90;;;;;;5458245;26;19998;-74
2024/04/18 04:33:35;;;;;;;2.55;2.35;;;0.10;99.90;;;;;;5490048;26;19994;-74
2024/04/18 04:36:02;;;;;;;3.92;3.63;;;0.20;99.90;;;;;;5487892;26;20014;-74
2024/04/18 04:38:29;;;;;;;3.97;2.65;;;0.20;99.90;;;;;;5488078;26;20005;-74
2024/04/18 04:40:56;;;;;;;4.05;3.78;;;0.30;99.90;;;;;;5488252;26;20005;-74
2024/04/18 04:43:23;;;;;;;6.38;2.85;;;0.30;99.90;;;;;;5490272;26;20066;-73
2024/04/18 04:45:54;;;;;;;4.90;4.50;;;0.40;99.90;;;;;;5487620;26;19998;-74
2024/04/18 04:48:34;;;;;;;4.88;2.17;;;0.40;99.90;;;;;;5488103;26;20026;-74
2024/04/18 04:51:11;;;;;;;6.50;4.75;;;0.50;99.90;;;;;;5489721;26;20082;-74
2024/04/18 04:53:38;;;;;;;4.28;3.88;;;0.50;99.90;;;;;;5518487;26;20393;-74
2024/04/18 04:56:05;;;;;;;4.30;3.92;;;0.60;99.90;;;;;;5489223;26;20439;-74
2024/04/18 04:58:32;;;;;;;4.72;4.43;;;0.60;99.90;;;;;;5487726;26;19998;-74
2024/04/18 05:01:00;;;;;;;5.70;3.35;;;0.70;99.90;;;;;;5482580;26;20483;-75
2024/04/18 05:03:36;;;;;;;4.90;3.65;;;0.70;99.90;;;;;;5487502;26;20343;-75
2024/04/18 05:06:23;;;;;;;7.35;3.88;;;0.80;99.90;;;;;;5486027;26;20082;-75
2024/04/18 05:09:08;;;;;;;4.53;4.13;;;0.90;99.90;;;;;;5489165;26;20013;-74
2024/04/18 05:11:36;;;;;;;8.43;3.83;;;0.90;99.90;;;;;;5489181;26;19998;-74
2024/04/18 05:14:23;;;;;;;4.03;3.83;;;0.90;99.90;;;;;;5488910;26;20116;-74
2024/04/18 05:16:50;;;;;;;3.78;3.47;;;1.00;99.90;;;;;;5457065;26;20489;-74
2024/04/18 05:19:19;;;;;;;6.22;2.92;;;1.10;99.90;;;;;;5457172;26;20431;-74
2024/04/18 05:21:46;;;;;;;4.38;3.97;;;1.20;99.90;;;;;;5487148;26;20009;-74
2024/04/18 05:24:33;;;;;;;6.63;3.75;;;1.40;99.90;;;;;;5489224;26;20078;-74
2024/04/18 05:27:01;;;;;;;6.45;3.40;;;1.60;99.90;;;;;;5488731;26;19998;-74
2024/04/18 05:32:14;;;;;;;4.25;3.15;;;1.90;99.90;;;;;;5489282;26;20442;-74
2024/04/18 05:35:01;;;;;;;5.75;3.90;;;2.10;99.90;;;;;;5488548;26;20002;-74
2024/04/18 05:37:28;;;;;;;4.22;3.75;;;2.20;99.90;;;;;;5518030;26;19998;-74
2024/04/18 05:39:55;;;;;;;4.78;4.38;;;2.50;99.90;;;;;;5486909;26;20009;-74
2024/04/18 05:42:22;;;;;;;6.47;4.40;;;2.60;99.90;;;;;;5487366;26;20034;-74
2024/04/18 05:45:06;;;;;;;5.07;3.40;;;2.80;99.90;;;;;;5488365;26;20002;-75
2024/04/18 05:47:53;;;;;;;5.13;2.90;;;3.10;99.90;;;;;;5488442;26;19998;-75
2024/04/18 05:50:21;;;;;;;3.25;2.95;;;3.30;99.90;;;;;;5487397;26;19994;-75
2024/04/18 05:52:48;;;;;;;8.57;5.10;;;3.50;99.90;;;;;;5427006;26;19994;-74
2024/04/18 05:55:21;;;;;;;6.63;3.05;;;3.70;99.90;;;;;;5486819;26;20021;-74
2024/04/18 05:57:48;;;;;;;4.03;3.63;;;3.90;99.90;;;;;;5456725;26;19994;-75
2024/04/18 06:00:34;;;;;;;3.67;3.38;;;4.20;99.90;;;;;;5484214;26;20070;-74
2024/04/18 06:03:01;;;;;;;9.02;2.67;;;4.60;99.90;;;;;;5451624;26;20071;-74
2024/04/18 06:05:28;;;;;;;5.78;2.92;;;4.70;99.90;;;;;;5448903;26;20009;-74
2024/04/18 06:08:16;;;;;;;6.50;3.95;;;5.10;99.90;;;;;;5449708;26;20455;-74
2024/04/18 06:10:43;;;;;;;3.75;2.67;;;5.80;99.90;;;;;;5452164;26;19998;-75
2024/04/18 06:13:20;;;;;;;3.10;2.80;;;6.40;99.90;;;;;;5450517;26;20007;-75
2024/04/18 06:15:47;;;;;;;5.45;3.08;;;7.30;99.90;;;;;;5421760;26;19999;-74
2024/04/18 06:18:15;;;;;;;5.10;2.35;;;8.30;99.90;;;;;;5451876;26;19999;-74
2024/04/18 06:20:44;;;;;;;4.50;2.10;;;9.10;99.90;;;;;;5452054;26;20011;-74
2024/04/18 06:23:12;;;;;;;2.58;2.38;;;9.50;99.90;;;;;;5420609;26;20003;-74
2024/04/18 06:25:39;;;;;;;2.75;2.30;;;9.90;99.90;;;;;;5452441;26;19999;-73
2024/04/18 06:28:11;;;;;;;2.25;2.05;;;10.20;99.90;;;;;;5450302;26;20023;-75
2024/04/18 06:30:40;;;;;;;3.40;2.15;;;10.50;99.90;;;;;;5452249;26;20455;-75
2024/04/18 06:33:10;;;;;;;2.35;1.75;;;10.90;99.90;;;;;;5452166;26;20463;-75
2024/04/18 06:35:37;;;;;;;5.78;1.80;;;11.30;99.20;;;;;;5455806;26;20100;-75
2024/04/18 06:38:06;;;;;;;2.30;1.45;;;11.70;98.80;;;;;;5455663;26;20425;-75
2024/04/18 06:40:33;;;;;;;3.47;1.60;;;12.20;98.20;;;;;;5455344;26;19995;-76
2024/04/18 06:43:00;;;;;;;2.88;1.85;;;12.80;96.00;;;;;;5455046;26;20080;-75
2024/04/18 06:45:28;;;;;;;4.60;2.35;;;13.10;94.30;;;;;;5453542;26;20006;-75
2024/04/18 06:47:55;;;;;;;2.22;1.80;;;13.50;93.80;;;;;;5455338;26;20011;-75
2024/04/18 06:50:22;;;;;;;1.65;1.55;;;13.80;92.30;;;;;;5455272;26;20400;-75
2024/04/18 06:52:52;;;;;;;3.70;2.45;;;14.10;91.80;;;;;;5453310;26;20009;-75
2024/04/18 06:55:21;;;;;;;3.30;2.35;;;14.40;91.20;;;;;;5454856;26;20007;-76
2024/04/18 06:57:48;;;;;;;3.15;1.80;;;14.70;90.60;;;;;;5453700;26;20018;-75
2024/04/18 07:00:15;;;;;;;2.75;1.40;;;15.10;90.60;;;;;;5423384;26;19999;-75
2024/04/18 07:02:43;;;;;;;1.73;1.08;;;15.40;87.30;;;;;;5452911;26;20410;-75
2024/04/18 07:05:29;;;;;;;3.53;2.05;;;15.70;87.30;;;;;;5454936;26;20013;-76
2024/04/18 07:08:15;;;;;;;2.65;1.63;;;16.00;86.60;;;;;;5454707;26;20039;-75
2024/04/18 07:10:42;;;;;;;2.10;1.65;;;15.80;85.00;;;;;;5483886;26;19994;-75
2024/04/18 07:13:29;;;;;;;3.30;1.30;;;15.50;85.40;;;;;;5455148;26;20216;-76
2024/04/18 07:16:00;;;;;;;;;;;15.30;87.00;;;;;;5455947;26;20035;-76
2024/04/18 07:18:46;;;;;;;3.78;2.33;;;15.60;86.60;;;;;;5455042;26;19931;-76
2024/04/18 07:21:14;;;;;;;3.28;1.42;;;16.10;86.10;;;;;;5423288;26;20003;-76
2024/04/18 07:23:41;;;;;;;2.38;1.70;;;16.40;84.60;;;;;;5452925;26;20072;-76
2024/04/18 07:26:09;;;;;;;3.38;1.27;;;16.60;83.30;;;;;;5454315;26;19998;-76
2024/04/18 07:28:36;;;;;;;2.45;1.25;;;16.80;83.70;;;;;;5453057;26;19999;-76
2024/04/18 07:31:03;;;;;;;2.78;1.50;;;16.80;82.90;;;;;;5452416;26;20075;-76
2024/04/18 07:33:32;;;;;;;2.15;1.08;;;17.00;82.50;;;;;;5423293;26;19999;-76
2024/04/18 07:36:14;;;;;;;3.45;1.92;;;17.10;81.80;;;;;;5482852;26;19998;-76
2024/04/18 07:38:41;;;;;;;3.78;1.92;;;17.30;81.60;;;;;;5454659;26;19998;-76
2024/04/18 07:41:08;;;;;;;2.03;1.25;;;17.40;80.10;;;;;;5452559;26;19999;-76
2024/04/18 07:43:35;;;;;;;2.25;1.48;;;17.50;80.10;;;;;;5453600;26;20010;-76
2024/04/18 07:46:03;;;;;;;2.42;1.45;;;17.80;79.50;;;;;;5452790;26;20562;-76
2024/04/18 07:48:30;;;;;;;2.35;1.42;;;17.80;78.80;;;;;;5423565;26;20002;-76
2024/04/18 07:50:58;;;;;;;1.88;1.58;;;17.40;78.80;;;;;;5454776;26;20006;-76
2024/04/18 07:53:25;;;;;;;0.80;0.80;;;17.30;80.10;;;;;;5393243;26;20070;-76
2024/04/18 07:55:52;;;;;;;1.27;1.17;;;17.70;79.10;;;;;;5452896;26;20072;-77
2024/04/18 07:58:19;;;;;;;1.58;1.45;;;18.00;79.00;;;;;;5454460;26;20439;-77
2024/04/18 08:00:50;;;;;;;3.83;1.25;;;18.40;78.00;;;;;;5423065;26;20075;-76
2024/04/18 08:03:19;;;;;;;2.03;1.15;;;18.70;77.10;;;;;;5452774;26;20014;-76
2024/04/18 08:05:48;;;;;;;1.52;1.40;;;18.80;75.70;;;;;;5482830;26;20003;-76
2024/04/18 08:08:17;;;;;;;3.08;1.20;;;18.90;75.30;;;;;;5453840;26;19998;-76
2024/04/18 08:10:47;;;;;;;2.75;1.38;;;19.00;75.20;;;;;;5452515;26;20018;-76
2024/04/18 08:13:26;;;;;;;1.70;1.55;;;19.00;74.30;;;;;;5452461;26;20013;-76
2024/04/18 08:15:56;;;;;;;4.72;1.60;;;18.40;73.60;;;;;;5454385;26;19999;-75
2024/04/18 08:18:23;;;;;;;3.08;1.85;;;17.80;74.30;;;;;;5453973;26;20014;-76
2024/04/18 08:20:50;;;;;;;1.98;1.58;;;17.50;75.00;;;;;;5453980;26;20444;-75
2024/04/18 08:23:20;;;;;;;4.22;1.95;;;16.80;75.00;;;;;;5392872;26;19999;-75
2024/04/18 08:25:47;;;;;;;2.80;2.05;;;16.00;76.10;;;;;;5452087;26;19994;-75
2024/04/18 08:28:16;;;;;;;1.58;1.48;;;15.10;77.90;;;;;;5482222;26;19994;-75
2024/04/18 08:30:44;;;;;;;2.78;1.52;;;15.10;80.10;;;;;;5454187;26;20071;-75
2024/04/18 08:33:11;;;;;;;2.05;1.75;;;15.40;79.60;;;;;;5453887;26;19995;-75
2024/04/18 08:35:39;;;;;;;1.52;1.42;;;15.40;78.90;;;;;;5454156;26;19995;-75
2024/04/18 08:38:08;;;;;;;6.38;1.63;;;15.30;79.60;;;;;;5454197;26;19998;-75
2024/04/18 08:40:36;;;;;;;2.50;1.88;;;15.60;79.50;;;;;;5451722;26;20328;-75
2024/04/18 08:43:04;;;;;;;1.92;1.83;;;16.10;78.70;;;;;;5453748;26;20017;-76
2024/04/18 08:45:34;;;;;;;3.63;1.58;;;16.30;77.50;;;;;;5451569;26;20436;-76
2024/04/18 08:48:02;;;;;;;4.40;2.38;;;16.60;76.80;;;;;;5453575;26;20007;-76
2024/04/18 08:50:31;;;;;;;1.30;1.10;;;17.10;75.50;;;;;;5453126;26;20009;-76
2024/04/18 08:53:00;;;;;;;8.20;2.15;;;16.90;74.80;;;;;;5453514;26;20027;-76
2024/04/18 08:55:29;;;;;;;4.53;1.65;;;16.30;75.20;;;;;;5450855;26;20003;-76
2024/04/18 08:58:04;;;;;;;2.78;1.77;;;16.00;76.90;;;;;;5453213;26;19999;-76
2024/04/18 09:00:33;;;;;;;1.27;0.88;;;16.90;77.30;;;;;;5453002;26;20007;-76
2024/04/18 09:03:01;;;;;;;1.48;1.38;;;17.50;75.00;;;;;;5452121;26;19998;-76
2024/04/18 09:05:28;;;;;;;3.28;1.83;;;17.20;73.50;;;;;;5421830;26;20006;-76
2024/04/18 09:07:56;;;;;;;3.35;1.77;;;16.60;73.10;;;;;;5451631;26;20002;-76
2024/04/18 09:10:23;;;;;;;1.58;1.20;;;16.30;74.00;;;;;;5453365;26;20079;-76
2024/04/18 09:12:53;;;;;;;3.10;2.00;;;16.70;73.20;;;;;;5451380;26;20463;-76
2024/04/18 09:15:22;;;;;;;3.17;1.42;;;17.30;73.10;;;;;;5423344;26;20321;-77
2024/04/18 09:18:03;;;;;;;1.42;1.33;;;17.90;71.10;;;;;;5482027;26;20008;-76
2024/04/18 09:20:33;;;;;;;2.30;1.25;;;18.70;70.30;;;;;;5451064;26;20022;-76
2024/04/18 09:23:00;;;;;;;1.00;1.00;;;19.40;68.90;;;;;;5453054;26;19999;-77
2024/04/18 09:25:28;;;;;;;3.33;1.00;;;19.60;68.10;;;;;;5451068;26;19999;-76
2024/04/18 09:27:55;;;;;;;3.47;1.50;;;19.40;67.70;;;;;;5453093;26;20071;-76
2024/04/18 09:30:22;;;;;;;2.58;1.30;;;18.90;68.00;;;;;;5452517;26;20031;-76
2024/04/18 09:32:50;;;;;;;2.42;1.40;;;18.50;69.10;;;;;;5452911;26;20103;-76
2024/04/18 09:35:17;;;;;;;1.83;1.40;;;18.20;69.50;;;;;;5450673;26;20014;-76
2024/04/18 09:37:46;;;;;;;3.58;1.25;;;18.00;69.10;;;;;;5451134;26;19998;-76
2024/04/18 09:40:22;;;;;;;3.60;1.38;;;17.70;69.20;;;;;;5452743;26;20223;-76
2024/04/18 09:43:15;;;;;;;1.70;1.52;;;17.60;69.00;;;;;;5453248;26;20006;-76
2024/04/18 09:46:12;;;;;;;3.70;1.15;;;17.70;70.00;;;;;;5451308;26;20002;-76
2024/04/18 09:48:40;;;;;;;1.23;1.00;;;17.70;68.80;;;;;;5481125;26;20393;-76
2024/04/18 09:51:09;;;;;;;2.47;0.95;;;17.80;69.90;;;;;;5451076;26;19999;-76
2024/04/18 09:53:37;;;;;;;1.20;1.10;;;17.80;69.20;;;;;;5451020;26;20006;-76
2024/04/18 09:56:05;;;;;;;1.20;1.10;;;17.50;69.10;;;;;;5450954;26;19995;-76
2024/04/18 09:58:33;;;;;;;1.60;0.90;;;17.00;69.90;;;;;;5450778;26;20316;-76
2024/04/18 10:01:01;;;;;;;1.92;1.73;;;17.10;70.40;;;;;;5480973;26;20075;-76
2024/04/18 10:03:28;;;;;;;1.30;1.20;;;17.80;70.10;;;;;;5452135;26;20010;-76
2024/04/18 10:06:00;;;;;;;1.05;1.05;;;19.00;68.20;;;;;;5450818;26;19999;-76
2024/04/18 10:08:37;;;;;;;0.60;0.60;;;20.00;66.70;;;;;;5450770;26;20003;-77
2024/04/18 10:11:05;;;;;;;5.00;1.55;;;20.80;64.30;;;;;;5452334;26;19999;-77
2024/04/18 10:13:32;;;;;;;3.13;1.40;;;21.00;64.00;;;;;;5450325;26;20010;-77
2024/04/18 10:16:19;;;;;;;1.45;1.20;;;21.20;64.00;;;;;;5452292;26;19998;-77
2024/04/18 10:18:46;;;;;;;3.13;1.15;;;21.10;63.60;;;;;;5451899;26;20006;-77
2024/04/18 10:21:26;;;;;;;1.40;1.20;;;20.90;63.60;;;;;;5450967;26;20010;-76
2024/04/18 10:24:03;;;;;;;2.33;0.98;;;20.40;63.30;;;;;;5452568;26;19995;-76
2024/04/18 10:26:32;;;;;;;3.63;1.00;;;19.20;64.10;;;;;;5452173;26;20022;-76
2024/04/18 10:28:59;;;;;;;0.82;0.82;;;18.20;65.00;;;;;;5450293;26;20045;-76
2024/04/18 10:31:28;;;;;;;2.47;1.10;;;17.20;65.90;;;;;;5450457;26;20127;-75
2024/04/18 10:33:56;;;;;;;1.73;1.30;;;16.40;66.70;;;;;;5450459;26;20071;-76
2024/04/18 10:36:24;;;;;;;0.95;0.88;;;15.80;67.90;;;;;;5450293;26;20440;-76
2024/04/18 10:38:51;;;;;;;2.90;1.70;;;15.50;68.50;;;;;;5449868;26;20006;-76
2024/04/18 10:41:22;;;;;;;2.42;1.92;;;15.40;68.80;;;;;;5450113;26;20017;-76
2024/04/18 10:43:49;;;;;;;;;;;15.30;69.10;;;;;;5452172;26;20011;-76
2024/04/18 10:46:18;;;;;;;1.85;1.50;;;15.30;69.30;;;;;;5451781;26;19993;-76
2024/04/18 10:48:56;;;;;;;1.00;0.80;;;15.80;68.50;;;;;;5451421;26;20035;-76
2024/04/18 10:51:27;;;;;;;3.53;2.33;;;17.00;68.30;;;;;;5450170;26;20006;-76
2024/04/18 10:53:54;;;;;;;3.90;2.05;;;17.90;66.20;;;;;;5420005;26;20009;-76
2024/04/18 10:56:21;;;;;;;1.48;1.38;;;18.30;66.00;;;;;;5451440;26;20010;-76
2024/04/18 10:58:48;;;;;;;1.40;0.93;;;19.00;64.90;;;;;;5451302;26;20405;-76
2024/04/18 11:01:19;;;;;;;3.08;1.13;;;19.00;64.10;;;;;;5451854;26;20432;-76
2024/04/18 11:03:51;;;;;;;3.83;1.48;;;19.30;63.40;;;;;;5451590;26;19995;-76
2024/04/18 11:06:18;;;;;;;2.22;1.23;;;20.10;63.30;;;;;;5420573;26;19995;-77
2024/04/18 11:08:47;;;;;;;1.48;0.93;;;21.10;62.60;;;;;;5479741;26;20077;-77
2024/04/18 11:11:16;;;;;;;2.08;1.23;;;22.00;60.60;;;;;;5451653;26;20453;-76
2024/04/18 11:13:43;;;;;;;1.60;1.02;;;22.40;60.20;;;;;;5451415;26;19994;-76
2024/04/18 11:16:10;;;;;;;2.60;1.10;;;22.30;60.30;;;;;;5451021;26;20006;-76
2024/04/18 11:18:37;;;;;;;1.52;1.10;;;21.60;60.40;;;;;;5480247;26;19999;-76
2024/04/18 11:21:05;;;;;;;1.95;1.25;;;20.60;61.10;;;;;;5453004;26;20007;-76
2024/04/18 11:23:33;;;;;;;2.80;0.73;;;19.60;62.10;;;;;;5454568;26;20043;-76
2024/04/18 11:26:05;;;;;;;5.22;1.30;;;18.70;63.00;;;;;;5454592;26;20002;-76
2024/04/18 11:28:33;;;;;;;2.75;1.30;;;18.00;63.90;;;;;;5452829;26;19999;-76
2024/04/18 11:31:01;;;;;;;2.00;1.00;;;17.50;64.80;;;;;;5454586;26;20010;-76
2024/04/18 11:33:28;;;;;;;1.50;1.20;;;17.70;65.60;;;;;;5452903;26;20080;-76
2024/04/18 11:35:55;;;;;;;0.80;0.80;;;18.60;65.10;;;;;;5452464;26;20010;-76
2024/04/18 11:38:24;;;;;;;1.65;1.15;;;19.50;64.00;;;;;;5452977;26;20044;-76
2024/04/18 11:40:51;;;;;;;4.57;1.70;;;19.70;63.10;;;;;;5452923;26;19995;-76
2024/04/18 11:43:18;;;;;;;2.42;1.38;;;19.60;62.90;;;;;;5453337;26;20006;-76
2024/04/18 11:45:45;;;;;;;1.63;1.52;;;19.30;63.10;;;;;;5454628;26;19994;-76
2024/04/18 11:48:12;;;;;;;2.90;0.90;;;19.00;63.80;;;;;;5454298;26;20401;-76
2024/04/18 11:50:40;;;;;;;2.13;1.40;;;18.80;64.50;;;;;;5454322;26;19999;-76
2024/04/18 11:53:09;;;;;;;2.55;1.25;;;18.50;65.10;;;;;;5454790;26;20010;-76
2024/04/18 11:55:36;;;;;;;3.55;1.20;;;18.50;65.70;;;;;;5454448;26;20052;-76
2024/04/18 11:58:22;;;;;;;3.25;1.83;;;18.60;65.50;;;;;;5454216;26;20018;-76
2024/04/18 12:00:49;;;;;;;1.73;1.40;;;18.70;65.70;;;;;;5452243;26;20075;-76
2024/04/18 12:03:36;;;;;;;2.42;1.92;;;18.70;66.00;;;;;;5427775;26;20007;-76
2024/04/18 12:06:23;;;;;;;4.85;1.45;;;19.20;65.60;;;;;;5454031;26;20002;-76
2024/04/18 12:08:51;;;;;;;3.03;1.05;;;19.60;64.80;;;;;;5453785;26;20033;-76
2024/04/18 12:11:30;;;;;;;1.90;1.25;;;19.60;65.10;;;;;;5454240;26;20015;-76
2024/04/18 12:14:10;;;;;;;1.77;0.98;;;19.30;64.90;;;;;;5454264;26;20021;-76
2024/04/18 12:16:53;;;;;;;1.88;1.17;;;18.80;65.70;;;;;;5453727;26;20003;-76
2024/04/18 12:19:20;;;;;;;4.78;1.27;;;18.20;66.50;;;;;;5452708;26;19994;-77
2024/04/18 12:21:47;;;;;;;2.53;2.00;;;17.60;67.20;;;;;;5452305;26;19995;-76
2024/04/18 12:24:14;;;;;;;4.43;1.20;;;17.40;68.10;;;;;;5454048;26;19995;-76
2024/04/18 12:26:41;;;;;;;2.95;1.42;;;17.20;68.50;;;;;;5453885;26;20436;-76
2024/04/18 12:29:13;;;;;;;2.35;1.10;;;17.10;69.00;;;;;;5454019;26;20365;-76
2024/04/18 12:31:55;;;;;;;3.40;1.38;;;17.00;69.70;;;;;;5451811;26;20015;-76
2024/04/18 12:34:23;;;;;;;5.25;1.00;;;16.60;70.00;;;;;;5422412;26;19998;-76
2024/04/18 12:37:01;;;;;;;4.03;1.30;;;16.30;70.70;;;;;;5453434;26;20015;-76
2024/04/18 12:39:33;;;;;;;2.17;1.45;;;15.90;71.30;;;;;;5423396;26;20010;-76
2024/04/18 12:42:21;;;;;;;2.75;1.85;;;15.70;71.80;;;;;;5427436;26;20003;-76
2024/04/18 12:44:48;;;;;;;3.08;1.55;;;15.60;72.20;;;;;;5453404;26;20457;-76
2024/04/18 12:47:20;;;;;;;4.57;1.40;;;15.70;72.20;;;;;;5453516;26;20006;-76
2024/04/18 12:49:48;;;;;;;4.60;1.35;;;15.70;72.20;;;;;;5481961;26;20010;-76
2024/04/18 12:52:16;;;;;;;1.27;1.17;;;15.80;72.10;;;;;;5451898;26;19998;-76
2024/04/18 12:54:44;;;;;;;2.05;1.27;;;15.80;71.90;;;;;;5453529;26;20014;-76
2024/04/18 12:57:20;;;;;;;2.72;1.45;;;15.90;72.00;;;;;;5451622;26;20456;-76
2024/04/18 13:00:03;;;;;;;4.70;1.33;;;16.10;71.60;;;;;;5425697;26;20007;-76
2024/04/18 13:02:51;;;;;;;4.25;1.88;;;16.30;71.10;;;;;;5451675;26;20009;-76
2024/04/18 13:05:39;;;;;;;5.13;1.25;;;16.20;71.10;;;;;;5453011;26;20003;-76
2024/04/18 13:08:06;;;;;;;2.40;1.17;;;15.80;71.10;;;;;;5451336;26;19999;-76
2024/04/18 13:10:52;;;;;;;2.15;1.45;;;15.50;71.20;;;;;;5451558;26;20410;-76
2024/04/18 13:13:22;;;;;;;1.92;0.98;;;15.20;71.70;;;;;;5453627;26;20365;-76
2024/04/18 13:16:07;;;;;;;4.28;1.80;;;14.90;72.20;;;;;;5426247;26;20017;-76
2024/04/18 13:18:34;;;;;;;3.30;1.83;;;14.90;72.60;;;;;;5453167;26;19994;-76
2024/04/18 13:21:02;;;;;;;1.70;1.40;;;15.00;72.80;;;;;;5451305;26;20021;-76